Overview Statistics Trail Chart Weather Telemetry Raw packets
 

This is the latest recevied weather packets stored in our database for station/object LU3HGB-WX. If no packets are shown the sender has not sent any weather packets the latest 10 day(s).

<< 48 49 50 51 52 53 54 >>
Time Temp. Humidity Pressure Rain* Wind** Luminosity Snow
1788353862 16.11° C 57% 1016 hPa 0 mm - 442 W/m² -
1788353561 15.56° C 57% 1016 hPa 0 mm - 427 W/m² -
1788353259 15° C 58% 1016 hPa 0 mm - 405 W/m² -
1788352959 14.44° C 61% 1016 hPa 0 mm - 386 W/m² -
1788352659 14.44° C 63% 1016 hPa 0 mm - 367 W/m² -
1788352059 12.78° C 65% 1016 hPa 0 mm - 321 W/m² -
1788351761 12.78° C 67% 1016 hPa 0 mm - 303 W/m² -
1788351460 12.22° C 67% 1016 hPa 0 mm - 283 W/m² -
1788351161 11.67° C 69% 1016 hPa 0 mm - 263 W/m² -
1788350859 11.11° C 70% 1016 hPa 0 mm - 244 W/m² -
1788350559 10.56° C 73% 1016 hPa 0 mm - 223 W/m² -
1788350259 8.89° C 76% 1016 hPa 0 mm - 201 W/m² -
1788349959 7.78° C 78% 1016 hPa 0 mm - 186 W/m² -
1788349660 6.67° C 81% 1016 hPa 0 mm - 170 W/m² -
1788349359 5.56° C 84% 1016 hPa 0 mm - 152 W/m² -
1788349064 5° C 90% 1016 hPa 0 mm - 128 W/m² -
1788348761 3.89° C 91% 1016 hPa 0 mm - 87 W/m² -
1788348464 3.33° C 91% 1016 hPa 0 mm - 60 W/m² -
1788348160 3.33° C 92% 1016 hPa 0 mm - 47 W/m² -
1788347859 2.78° C 91% 1016 hPa 0 mm - 41 W/m² -
1788347567 2.78° C 92% 1016 hPa 0 mm - 35 W/m² -
1788347259 2.78° C 92% 1016 hPa 0 mm - 31 W/m² -
1788346960 2.78° C 91% 1016 hPa 0 mm - 27 W/m² -
1788346659 2.78° C 88% 1016 hPa 0 mm - 22 W/m² -
1788346359 2.78° C 89% 1016 hPa 0 mm - 19 W/m² -

* Rain latest hour (hover to see other rain measurements)
** Current wind speed in m/s (hover to see current wind gust speed)